Time;durP1;ratioP1;P1;durP2;ratioP2;P2;SDS_P1;SDS_P2;PMS_P1;PMS_P2;Temp;Humidity;BMP_temperature;BMP_pressure;BME280_temperature;BME280_humidity;BME280_pressure;Samples;Min_cycle;Max_cycle;Signal;HPM_P1;HPM_P2
2022/01/06 00:00:07;;;;;;;;;;;6.60;99.90;;;;;;5076352;28;19909;-82
2022/01/06 00:02:34;;;;;;;;;;;6.60;99.90;;;;;;5076370;28;19909;-84
2022/01/06 00:04:59;;;;;;;;;;;6.50;99.90;;;;;;5076499;28;20391;-84
2022/01/06 00:07:25;;;;;;;;;;;6.40;99.90;;;;;;5075033;28;19958;-81
2022/01/06 00:09:51;;;;;;;;;;;6.50;99.90;;;;;;5076570;28;19999;-82
2022/01/06 00:12:19;;;;;;;;;;;6.50;99.90;;;;;;5074776;28;19915;-84
2022/01/06 00:25:16;;;;;;;;;;;6.50;99.90;;;;;;5076003;28;19916;-84
2022/01/06 00:27:41;;;;;;;;;;;6.30;99.90;;;;;;5076109;28;19908;-82
2022/01/06 00:30:07;;;;;;;;;;;6.40;99.90;;;;;;5075959;28;19919;-84
2022/01/06 00:32:33;;;;;;;;;;;6.40;99.90;;;;;;5074634;28;19909;-82
2022/01/06 00:34:58;;;;;;;;;;;6.30;99.90;;;;;;5075917;28;19915;-81
2022/01/06 00:37:24;;;;;;;;;;;6.30;99.90;;;;;;5075794;28;19955;-83
2022/01/06 00:39:50;;;;;;;;;;;6.30;99.90;;;;;;5075621;28;19909;-83
2022/01/06 00:42:16;;;;;;;;;;;6.20;99.90;;;;;;5075620;28;19913;-81
2022/01/06 00:44:42;;;;;;;;;;;6.30;99.90;;;;;;5075702;28;19909;-82
2022/01/06 00:47:08;;;;;;;;;;;6.40;99.90;;;;;;5075581;28;19958;-82
2022/01/06 00:49:33;;;;;;;;;;;6.40;99.90;;;;;;5074294;28;19909;-79
2022/01/06 00:51:59;;;;;;;;;;;6.20;99.90;;;;;;5075654;28;19959;-82
2022/01/06 00:54:24;;;;;;;;;;;6.30;99.90;;;;;;5075547;28;19909;-83
2022/01/06 00:56:50;;;;;;;;;;;6.30;99.90;;;;;;5075601;28;20369;-82
2022/01/06 00:59:16;;;;;;;;;;;6.50;99.90;;;;;;5075341;28;20257;-84
2022/01/06 01:01:41;;;;;;;;;;;6.50;99.90;;;;;;5075222;28;19912;-81
2022/01/06 01:04:07;;;;;;;;;;;6.60;99.90;;;;;;5075319;28;19912;-79
2022/01/06 01:06:33;;;;;;;;;;;6.60;99.90;;;;;;5073841;28;20365;-78
2022/01/06 01:08:58;;;;;;;;;;;6.70;99.90;;;;;;5075233;28;19912;-79
2022/01/06 01:11:24;;;;;;;;;;;6.60;99.90;;;;;;5075088;28;20316;-79
2022/01/06 01:13:56;;;;;;;;;;;6.60;99.90;;;;;;5074972;28;19943;-80
2022/01/06 01:16:29;;;;;;;;;;;6.60;99.90;;;;;;5075191;28;20403;-77
2022/01/06 01:19:00;;;;;;;;;;;6.50;99.90;;;;;;5073382;28;19915;-83
2022/01/06 01:21:26;;;;;;;;;;;6.50;99.90;;;;;;5075216;28;19913;-81
2022/01/06 01:23:56;;;;;;;;;;;6.40;99.90;;;;;;5075128;28;20354;-80
2022/01/06 01:26:21;;;;;;;;;;;6.20;99.90;;;;;;5074129;28;19909;-86
2022/01/06 01:28:47;;;;;;;;;;;6.20;99.90;;;;;;5074816;28;20289;-79
2022/01/06 01:31:28;;;;;;;;;;;6.20;99.90;;;;;;5074740;28;19909;-84
2022/01/06 01:33:56;;;;;;;;;;;6.10;99.90;;;;;;5074909;28;19908;-85
2022/01/06 01:36:22;;;;;;;;;;;5.90;99.90;;;;;;5073332;28;19915;-83
2022/01/06 01:38:48;;;;;;;;;;;5.90;99.90;;;;;;5073274;28;19908;-82
2022/01/06 01:41:14;;;;;;;;;;;5.90;99.90;;;;;;5074426;28;19917;-82
2022/01/06 01:43:40;;;;;;;;;;;5.90;99.90;;;;;;5074477;28;20369;-81
2022/01/06 01:46:15;;;;;;;;;;;6.20;99.90;;;;;;5074382;28;19909;-80
2022/01/06 01:48:46;;;;;;;;;;;6.20;99.90;;;;;;5074579;28;19909;-84
2022/01/06 01:51:11;;;;;;;;;;;6.20;99.90;;;;;;5074641;28;19908;-82
2022/01/06 01:53:37;;;;;;;;;;;6.30;99.90;;;;;;5074286;28;19912;-82
2022/01/06 01:56:07;;;;;;;;;;;6.20;99.90;;;;;;5074318;28;19908;-83
2022/01/06 01:58:36;;;;;;;;;;;6.10;99.90;;;;;;5072896;28;19931;-84
2022/01/06 02:01:02;;;;;;;;;;;6.20;99.90;;;;;;5074099;28;19913;-82
2022/01/06 02:03:27;;;;;;;;;;;6.50;99.90;;;;;;5074146;28;19913;-79
2022/01/06 02:05:53;;;;;;;;;;;6.60;99.90;;;;;;5074189;28;19958;-85
2022/01/06 02:08:18;;;;;;;;;;;6.60;99.90;;;;;;5074013;28;20277;-86
2022/01/06 02:10:44;;;;;;;;;;;6.50;99.90;;;;;;5074171;28;19944;-82
2022/01/06 02:13:10;;;;;;;;;;;6.20;99.90;;;;;;5073975;28;19916;-82
2022/01/06 02:15:35;;;;;;;;;;;6.00;99.90;;;;;;5072365;28;19969;-83
2022/01/06 02:18:01;;;;;;;;;;;5.90;99.90;;;;;;5074035;28;19909;-82
2022/01/06 02:20:27;;;;;;;;;;;6.00;99.90;;;;;;5073960;28;19987;-82
2022/01/06 02:22:53;;;;;;;;;;;6.00;99.90;;;;;;5073763;28;19909;-82
2022/01/06 02:25:20;;;;;;;;;;;6.10;99.90;;;;;;5072425;28;19958;-81
2022/01/06 02:27:50;;;;;;;;;;;6.20;99.90;;;;;;5073692;28;20373;-84
2022/01/06 02:30:16;;;;;;;;;;;6.00;99.90;;;;;;5073660;28;19909;-84
2022/01/06 02:32:42;;;;;;;;;;;6.00;99.90;;;;;;5073836;28;19962;-81
2022/01/06 02:35:15;;;;;;;;;;;6.10;99.90;;;;;;5072408;28;19916;-81
2022/01/06 02:37:41;;;;;;;;;;;6.30;99.90;;;;;;5072352;28;19979;-83
2022/01/06 02:40:08;;;;;;;;;;;6.10;99.90;;;;;;5073405;28;20304;-83
2022/01/06 02:42:35;;;;;;;;;;;6.20;99.90;;;;;;5073874;28;20277;-86
2022/01/06 02:45:00;;;;;;;;;;;6.00;99.90;;;;;;5073513;28;19958;-83
2022/01/06 02:47:26;;;;;;;;;;;6.20;99.90;;;;;;5073483;28;19909;-85
2022/01/06 02:49:52;;;;;;;;;;;6.40;99.90;;;;;;5072166;28;19909;-84
2022/01/06 02:52:17;;;;;;;;;;;6.40;99.90;;;;;;5072137;28;19912;-82
2022/01/06 02:54:43;;;;;;;;;;;6.40;99.90;;;;;;5073535;28;20054;-82
2022/01/06 02:57:09;;;;;;;;;;;6.40;99.90;;;;;;5073399;28;19946;-83
2022/01/06 02:59:35;;;;;;;;;;;6.40;99.90;;;;;;5073700;28;19954;-83
2022/01/06 03:02:01;;;;;;;;;;;6.50;99.90;;;;;;5073248;28;19912;-84
2022/01/06 03:04:26;;;;;;;;;;;6.20;99.90;;;;;;5073312;28;20347;-81
2022/01/06 03:06:52;;;;;;;;;;;6.10;99.90;;;;;;5073306;28;19916;-82
2022/01/06 03:09:25;;;;;;;;;;;6.30;99.90;;;;;;5072062;28;19918;-82
2022/01/06 03:11:53;;;;;;;;;;;6.20;99.90;;;;;;5071653;28;19912;-82
2022/01/06 03:14:19;;;;;;;;;;;6.20;99.90;;;;;;5073064;28;19974;-81
2022/01/06 03:16:44;;;;;;;;;;;6.20;99.90;;;;;;5071897;28;19912;-84
2022/01/06 03:19:10;;;;;;;;;;;6.00;99.90;;;;;;5073161;28;19908;-81
2022/01/06 03:21:35;;;;;;;;;;;5.90;99.90;;;;;;5073204;28;19912;-82
2022/01/06 03:24:01;;;;;;;;;;;5.80;99.90;;;;;;5073210;28;19909;-84
2022/01/06 03:26:26;;;;;;;;;;;6.00;99.90;;;;;;5071787;28;20266;-82
2022/01/06 03:28:52;;;;;;;;;;;6.10;99.90;;;;;;5071832;28;19909;-86
2022/01/06 03:31:18;;;;;;;;;;;5.90;99.90;;;;;;5073076;28;19975;-84
2022/01/06 03:33:43;;;;;;;;;;;5.70;99.90;;;;;;5073179;28;19909;-81
2022/01/06 03:36:09;;;;;;;;;;;5.60;99.90;;;;;;5073180;28;20430;-83
2022/01/06 03:38:35;;;;;;;;;;;5.50;99.90;;;;;;5073021;28;19947;-80
2022/01/06 03:41:00;;;;;;;;;;;5.40;99.90;;;;;;5071921;28;20471;-79
2022/01/06 03:43:26;;;;;;;;;;;5.30;99.90;;;;;;5073012;28;19909;-85
2022/01/06 03:45:51;;;;;;;;;;;5.30;99.90;;;;;;5071613;28;19908;-84
2022/01/06 03:48:17;;;;;;;;;;;5.40;99.90;;;;;;5073583;28;20325;-80
2022/01/06 03:50:42;;;;;;;;;;;5.40;99.90;;;;;;5076659;28;19915;-83
2022/01/06 03:53:08;;;;;;;;;;;5.30;99.90;;;;;;5076587;28;20391;-83
2022/01/06 03:55:34;;;;;;;;;;;5.40;99.90;;;;;;5075286;28;20312;-82
2022/01/06 03:57:59;;;;;;;;;;;5.40;99.90;;;;;;5076519;28;20444;-84
2022/01/06 04:00:25;;;;;;;;;;;5.50;99.90;;;;;;5076428;28;20377;-82
2022/01/06 04:02:51;;;;;;;;;;;5.70;99.90;;;;;;5076446;28;19931;-81
2022/01/06 04:05:17;;;;;;;;;;;5.60;99.90;;;;;;5076425;28;19908;-83
2022/01/06 04:07:42;;;;;;;;;;;5.60;99.90;;;;;;5075159;28;20391;-82
2022/01/06 04:10:09;;;;;;;;;;;5.70;99.90;;;;;;5076564;28;19908;-81
2022/01/06 04:12:36;;;;;;;;;;;5.70;99.90;;;;;;5076304;28;19947;-82
2022/01/06 04:15:03;;;;;;;;;;;5.70;99.90;;;;;;5075837;28;19928;-81
2022/01/06 04:17:29;;;;;;;;;;;5.70;99.90;;;;;;5076415;28;20003;-84
2022/01/06 04:19:55;;;;;;;;;;;5.40;99.90;;;;;;5075188;28;19948;-79
2022/01/06 04:22:20;;;;;;;;;;;5.30;99.90;;;;;;5076640;28;19921;-85
2022/01/06 04:24:46;;;;;;;;;;;5.30;99.90;;;;;;5076735;28;20297;-82
2022/01/06 04:27:12;;;;;;;;;;;5.40;99.90;;;;;;5076330;28;19995;-80
2022/01/06 04:29:37;;;;;;;;;;;5.40;99.90;;;;;;5074864;28;19921;-80
2022/01/06 04:32:03;;;;;;;;;;;5.50;99.90;;;;;;5075983;28;20361;-81
2022/01/06 04:34:29;;;;;;;;;;;5.70;99.90;;;;;;5075864;28;19953;-83
2022/01/06 04:36:57;;;;;;;;;;;5.70;99.90;;;;;;5075815;28;20003;-83
2022/01/06 04:39:23;;;;;;;;;;;5.60;99.90;;;;;;5074439;28;19908;-83
2022/01/06 04:41:48;;;;;;;;;;;5.60;99.90;;;;;;5075547;28;19913;-82
2022/01/06 04:44:14;;;;;;;;;;;5.70;99.90;;;;;;5076025;28;19920;-81
2022/01/06 04:46:40;;;;;;;;;;;5.60;99.90;;;;;;5075650;28;19999;-82
2022/01/06 04:49:05;;;;;;;;;;;5.60;99.90;;;;;;5075572;28;19958;-80
2022/01/06 04:51:31;;;;;;;;;;;5.30;99.90;;;;;;5075479;28;19909;-81
2022/01/06 04:53:57;;;;;;;;;;;5.20;99.90;;;;;;5074158;28;20285;-81
2022/01/06 04:56:22;;;;;;;;;;;5.20;99.90;;;;;;5075441;28;19908;-86
2022/01/06 04:58:48;;;;;;;;;;;5.30;99.90;;;;;;5075507;28;20361;-82
2022/01/06 05:01:14;;;;;;;;;;;5.20;99.90;;;;;;5074219;28;19923;-82
2022/01/06 05:03:40;;;;;;;;;;;5.20;99.90;;;;;;5074015;28;19999;-85
2022/01/06 05:06:05;;;;;;;;;;;5.10;99.90;;;;;;5075439;28;19909;-82
2022/01/06 05:08:31;;;;;;;;;;;4.90;99.90;;;;;;5073903;28;20326;-81
2022/01/06 05:10:56;;;;;;;;;;;5.00;99.90;;;;;;5073805;28;19909;-81
2022/01/06 05:13:22;;;;;;;;;;;5.00;99.90;;;;;;5074906;28;20370;-81
2022/01/06 05:15:47;;;;;;;;;;;4.90;99.90;;;;;;5073528;28;19928;-82
2022/01/06 05:18:13;;;;;;;;;;;5.00;99.90;;;;;;5075064;28;19909;-80
2022/01/06 05:20:42;;;;;;;;;;;5.00;99.90;;;;;;5074944;28;20009;-83
2022/01/06 05:23:09;;;;;;;;;;;4.90;99.90;;;;;;5074914;28;19912;-83
2022/01/06 05:25:36;;;;;;;;;;;4.70;99.90;;;;;;5074361;28;20136;-84
2022/01/06 05:28:02;;;;;;;;;;;4.50;99.90;;;;;;5074911;28;19908;-81
2022/01/06 05:30:28;;;;;;;;;;;4.60;99.90;;;;;;5074753;28;19950;-81
2022/01/06 05:32:53;;;;;;;;;;;4.60;99.90;;;;;;5074875;28;19908;-84
2022/01/06 05:35:19;;;;;;;;;;;4.50;99.90;;;;;;5074669;28;20372;-81
2022/01/06 05:37:45;;;;;;;;;;;4.40;99.90;;;;;;5074779;28;19996;-81
2022/01/06 05:40:11;;;;;;;;;;;4.40;99.90;;;;;;5074523;28;19909;-82
2022/01/06 05:42:36;;;;;;;;;;;4.50;99.90;;;;;;5073022;28;19913;-82
2022/01/06 05:45:02;;;;;;;;;;;4.50;99.90;;;;;;5074549;28;19958;-80
2022/01/06 05:47:28;;;;;;;;;;;4.60;99.90;;;;;;5074636;28;19913;-82
2022/01/06 05:49:53;;;;;;;;;;;4.70;99.90;;;;;;5074474;28;19909;-84
2022/01/06 05:52:19;;;;;;;;;;;4.60;99.90;;;;;;5074487;28;19940;-85
2022/01/06 05:54:44;;;;;;;;;;;4.50;99.90;;;;;;5074458;28;19909;-82
2022/01/06 05:57:11;;;;;;;;;;;4.30;99.90;;;;;;5074270;28;19954;-81
2022/01/06 05:59:37;;;;;;;;;;;4.20;99.90;;;;;;5074171;28;19908;-81
2022/01/06 06:02:02;;;;;;;;;;;4.30;99.90;;;;;;5074035;28;19978;-82
2022/01/06 06:04:28;;;;;;;;;;;4.20;99.90;;;;;;5074073;28;19969;-84
2022/01/06 06:06:54;;;;;;;;;;;4.00;99.90;;;;;;5073985;28;19954;-84
2022/01/06 06:09:19;;;;;;;;;;;3.90;99.90;;;;;;5074127;28;19948;-82
2022/01/06 06:11:45;;;;;;;;;;;3.80;99.90;;;;;;5073703;28;19908;-78
2022/01/06 06:14:11;;;;;;;;;;;3.70;99.90;;;;;;5072517;28;19928;-82
2022/01/06 06:16:36;;;;;;;;;;;3.60;99.90;;;;;;5073841;28;19958;-83
2022/01/06 06:19:02;;;;;;;;;;;3.60;99.90;;;;;;5072575;28;19957;-84
2022/01/06 06:21:27;;;;;;;;;;;3.60;99.90;;;;;;5074029;28;19924;-82
2022/01/06 06:23:53;;;;;;;;;;;3.50;99.90;;;;;;5073774;28;20376;-82
2022/01/06 06:26:19;;;;;;;;;;;3.60;99.90;;;;;;5073702;28;19981;-80
2022/01/06 06:28:44;;;;;;;;;;;3.60;99.90;;;;;;5072484;28;19915;-80
2022/01/06 06:31:10;;;;;;;;;;;3.70;99.90;;;;;;5073745;28;20280;-81
2022/01/06 06:33:35;;;;;;;;;;;3.70;99.90;;;;;;5073744;28;19908;-82
2022/01/06 06:36:01;;;;;;;;;;;3.60;99.90;;;;;;5073639;28;19908;-83
2022/01/06 06:38:27;;;;;;;;;;;3.60;99.90;;;;;;5073548;28;20007;-83
2022/01/06 06:40:52;;;;;;;;;;;3.50;99.90;;;;;;5073505;28;20025;-81
2022/01/06 06:43:18;;;;;;;;;;;3.50;99.90;;;;;;5073511;28;19908;-83
2022/01/06 06:45:44;;;;;;;;;;;3.50;99.90;;;;;;5073600;28;20377;-79
2022/01/06 06:48:10;;;;;;;;;;;3.30;99.90;;;;;;5073512;28;19957;-82
2022/01/06 06:50:35;;;;;;;;;;;3.20;99.90;;;;;;5073484;28;19916;-80
2022/01/06 06:53:04;;;;;;;;;;;3.10;99.90;;;;;;5073482;28;20007;-81
2022/01/06 06:55:30;;;;;;;;;;;3.10;99.90;;;;;;5073421;28;19909;-82
2022/01/06 06:57:55;;;;;;;;;;;3.10;99.90;;;;;;5073382;28;19998;-81
2022/01/06 07:00:21;;;;;;;;;;;3.30;99.90;;;;;;5073248;28;19958;-83
2022/01/06 07:02:47;;;;;;;;;;;3.10;99.90;;;;;;5073555;28;19915;-80
2022/01/06 07:05:15;;;;;;;;;;;2.80;99.90;;;;;;5073352;28;20368;-78
2022/01/06 07:07:41;;;;;;;;;;;2.80;99.90;;;;;;5073323;28;19916;-80
2022/01/06 07:10:07;;;;;;;;;;;3.00;99.90;;;;;;5073275;28;19909;-83
2022/01/06 07:12:32;;;;;;;;;;;3.10;99.90;;;;;;5073164;28;19908;-80
2022/01/06 07:15:00;;;;;;;;;;;2.80;99.90;;;;;;5072935;28;20436;-85
2022/01/06 07:17:26;;;;;;;;;;;2.80;99.90;;;;;;5073259;28;19916;-80
2022/01/06 07:19:51;;;;;;;;;;;2.70;99.90;;;;;;5073160;28;20484;-82
2022/01/06 07:22:17;;;;;;;;;;;2.70;99.90;;;;;;5073063;28;20413;-83
2022/01/06 07:24:42;;;;;;;;;;;2.80;99.90;;;;;;5076472;28;19954;-83
2022/01/06 07:27:08;;;;;;;;;;;2.90;99.90;;;;;;5077179;28;19955;-82
2022/01/06 07:29:34;;;;;;;;;;;2.80;99.90;;;;;;5077076;28;19913;-82
2022/01/06 07:31:59;;;;;;;;;;;2.80;99.90;;;;;;5077015;28;19916;-80
2022/01/06 07:34:25;;;;;;;;;;;2.80;99.90;;;;;;5077005;28;19909;-82
2022/01/06 07:36:51;;;;;;;;;;;3.00;99.90;;;;;;5075980;28;19915;-81
2022/01/06 07:39:16;;;;;;;;;;;3.00;99.90;;;;;;5077041;28;20017;-79
2022/01/06 07:41:42;;;;;;;;;;;3.10;99.90;;;;;;5076747;28;19921;-82
2022/01/06 07:44:07;;;;;;;;;;;3.20;99.90;;;;;;5077119;28;19913;-81
2022/01/06 07:46:34;;;;;;;;;;;2.90;99.90;;;;;;5076769;28;19962;-85
2022/01/06 07:49:00;;;;;;;;;;;3.10;99.90;;;;;;5075441;28;19913;-81
2022/01/06 07:51:27;;;;;;;;;;;3.00;99.90;;;;;;5076685;28;19912;-80
2022/01/06 07:53:52;;;;;;;;;;;3.00;99.90;;;;;;5076610;28;19909;-83
2022/01/06 07:56:18;;;;;;;;;;;2.80;99.90;;;;;;5075264;28;19916;-82
2022/01/06 07:58:44;;;;;;;;;;;2.70;99.90;;;;;;5076553;28;19915;-80
2022/01/06 08:01:10;;;;;;;;;;;2.60;99.90;;;;;;5076412;28;20003;-82
2022/01/06 08:03:36;;;;;;;;;;;2.80;99.90;;;;;;5076430;28;20337;-81
2022/01/06 08:06:02;;;;;;;;;;;2.80;99.90;;;;;;5076369;28;19954;-83
2022/01/06 08:08:28;;;;;;;;;;;2.90;99.90;;;;;;5076494;28;20022;-80
2022/01/06 08:10:53;;;;;;;;;;;2.80;99.90;;;;;;5076407;28;20315;-83
2022/01/06 08:13:19;;;;;;;;;;;3.00;99.90;;;;;;5076126;28;19916;-82
2022/01/06 08:15:44;;;;;;;;;;;3.10;99.90;;;;;;5076372;28;19908;-83
2022/01/06 08:18:10;;;;;;;;;;;3.30;99.90;;;;;;5076662;28;20047;-82
2022/01/06 08:20:38;;;;;;;;;;;3.40;99.90;;;;;;5076021;28;19908;-81
2022/01/06 08:23:05;;;;;;;;;;;3.40;99.90;;;;;;5074821;28;19916;-84
2022/01/06 08:25:31;;;;;;;;;;;3.40;99.90;;;;;;5076054;28;19916;-80
2022/01/06 08:27:56;;;;;;;;;;;3.50;99.90;;;;;;5075964;28;19954;-85
2022/01/06 08:30:22;;;;;;;;;;;3.50;99.90;;;;;;5074655;28;19909;-82
2022/01/06 08:32:48;;;;;;;;;;;3.50;99.90;;;;;;5076026;28;19927;-83
2022/01/06 08:35:13;;;;;;;;;;;3.80;99.90;;;;;;5075709;28;19942;-82
2022/01/06 08:37:39;;;;;;;;;;;4.10;99.90;;;;;;5075853;28;19908;-82
2022/01/06 08:40:05;;;;;;;;;;;4.20;99.90;;;;;;5075731;28;20365;-85
2022/01/06 08:42:30;;;;;;;;;;;4.20;99.90;;;;;;5075803;28;19912;-84
2022/01/06 08:44:56;;;;;;;;;;;4.20;99.90;;;;;;5075875;28;20369;-83
2022/01/06 08:47:22;;;;;;;;;;;4.30;99.90;;;;;;5074322;28;19908;-81
2022/01/06 08:49:47;;;;;;;;;;;4.50;99.90;;;;;;5074285;28;19913;-84
2022/01/06 08:52:13;;;;;;;;;;;4.30;99.90;;;;;;5075528;28;19908;-80
2022/01/06 08:54:39;;;;;;;;;;;4.50;99.90;;;;;;5075817;28;20250;-82
2022/01/06 08:57:05;;;;;;;;;;;4.90;99.90;;;;;;5075517;28;19909;-85
2022/01/06 08:59:30;;;;;;;;;;;5.00;99.90;;;;;;5075358;28;19908;-82
2022/01/06 09:01:56;;;;;;;;;;;5.20;99.90;;;;;;5075501;28;20011;-79
2022/01/06 09:04:22;;;;;;;;;;;5.30;99.90;;;;;;5075451;28;19908;-81
2022/01/06 09:06:48;;;;;;;;;;;5.30;99.90;;;;;;5074010;28;19919;-85
2022/01/06 09:09:14;;;;;;;;;;;5.30;99.90;;;;;;5075246;28;19919;-82
2022/01/06 09:11:40;;;;;;;;;;;5.70;99.90;;;;;;5075123;28;20281;-82
2022/01/06 09:14:05;;;;;;;;;;;6.20;99.90;;;;;;5073652;28;19921;-83
2022/01/06 09:16:31;;;;;;;;;;;6.60;99.90;;;;;;5075014;28;19942;-85
2022/01/06 09:18:57;;;;;;;;;;;6.90;99.90;;;;;;5075090;28;20247;-83
2022/01/06 09:21:24;;;;;;;;;;;7.00;99.90;;;;;;5073647;28;19919;-81
2022/01/06 09:23:54;;;;;;;;;;;6.90;99.90;;;;;;5073693;28;19908;-82
2022/01/06 09:26:20;;;;;;;;;;;6.80;99.90;;;;;;5075286;28;19915;-82
2022/01/06 09:28:46;;;;;;;;;;;7.30;99.90;;;;;;5075200;28;19909;-81
2022/01/06 09:31:11;;;;;;;;;;;7.60;99.90;;;;;;5074738;28;20395;-82
2022/01/06 09:33:37;;;;;;;;;;;9.10;99.90;;;;;;5074783;28;20343;-83
2022/01/06 09:36:03;;;;;;;;;;;9.80;98.00;;;;;;5074755;28;19909;-84
2022/01/06 09:38:28;;;;;;;;;;;11.00;97.60;;;;;;5074699;28;20323;-80
2022/01/06 09:40:54;;;;;;;;;;;12.50;94.20;;;;;;5074470;28;20323;-78
2022/01/06 09:43:24;;;;;;;;;;;13.70;91.20;;;;;;5074789;28;20003;-82
2022/01/06 09:45:49;;;;;;;;;;;14.50;87.10;;;;;;5072747;28;19915;-79
2022/01/06 09:48:15;;;;;;;;;;;15.90;79.20;;;;;;5073136;28;20339;-81
2022/01/06 09:50:43;;;;;;;;;;;16.10;73.40;;;;;;5073076;28;20334;-81
2022/01/06 09:53:10;;;;;;;;;;;15.50;72.80;;;;;;5074388;28;19995;-81
2022/01/06 09:55:37;;;;;;;;;;;15.10;73.80;;;;;;5072910;28;19916;-77
2022/01/06 09:58:03;;;;;;;;;;;14.70;73.10;;;;;;5074205;28;19908;-82
2022/01/06 10:00:29;;;;;;;;;;;14.70;73.00;;;;;;5074255;28;19915;-79
2022/01/06 10:02:56;;;;;;;;;;;16.60;70.30;;;;;;5074197;28;19909;-81
2022/01/06 10:05:23;;;;;;;;;;;18.70;65.00;;;;;;5072801;28;20384;-82
2022/01/06 10:07:48;;;;;;;;;;;17.40;63.20;;;;;;5072739;28;20304;-82
2022/01/06 10:10:14;;;;;;;;;;;16.80;63.00;;;;;;5072729;28;19913;-81
2022/01/06 10:12:41;;;;;;;;;;;16.80;63.70;;;;;;5072712;28;19971;-78
2022/01/06 10:15:18;;;;;;;;;;;18.10;62.80;;;;;;5072230;28;19920;-80
2022/01/06 10:17:43;;;;;;;;;;;18.50;59.80;;;;;;5073841;28;19909;-80
2022/01/06 10:20:10;;;;;;;;;;;18.10;59.80;;;;;;5074186;28;19915;-78
2022/01/06 10:22:43;;;;;;;;;;;17.90;60.00;;;;;;5073643;28;19958;-78
2022/01/06 10:25:10;;;;;;;;;;;18.50;60.30;;;;;;5072476;28;19958;-79
2022/01/06 10:27:37;;;;;;;;;;;20.50;57.00;;;;;;5072415;28;20387;-81
2022/01/06 10:30:05;;;;;;;;;;;20.20;55.20;;;;;;5074005;28;20366;-82
2022/01/06 10:32:31;;;;;;;;;;;19.90;55.80;;;;;;5073528;28;19913;-78
2022/01/06 10:35:02;;;;;;;;;;;21.20;54.00;;;;;;5073676;28;19915;-81
2022/01/06 10:37:30;;;;;;;;;;;20.60;53.50;;;;;;5072035;28;20447;-83
2022/01/06 10:40:03;;;;;;;;;;;20.60;53.40;;;;;;5073512;28;19909;-80
2022/01/06 10:42:33;;;;;;;;;;;22.50;50.80;;;;;;5072013;28;20011;-81
2022/01/06 10:45:08;;;;;;;;;;;22.60;49.40;;;;;;5073524;28;19909;-80
2022/01/06 10:47:38;;;;;;;;;;;22.30;47.90;;;;;;5071989;28;19912;-84
2022/01/06 10:50:17;;;;;;;;;;;22.70;48.80;;;;;;5072196;28;19909;-81
2022/01/06 10:52:43;;;;;;;;;;;23.40;49.10;;;;;;5072113;28;19912;-81
2022/01/06 10:55:17;;;;;;;;;;;23.20;47.00;;;;;;5072126;28;20328;-78
2022/01/06 10:57:55;;;;;;;;;;;21.70;48.30;;;;;;5071355;28;20430;-79
2022/01/06 11:00:21;;;;;;;;;;;23.20;48.00;;;;;;5073547;28;19909;-79
2022/01/06 11:02:47;;;;;;;;;;;22.90;44.80;;;;;;5073362;28;19909;-82
2022/01/06 11:05:13;;;;;;;;;;;20.30;44.30;;;;;;5073551;28;19921;-78
2022/01/06 11:07:38;;;;;;;;;;;18.60;49.30;;;;;;5073481;28;19917;-79
2022/01/06 11:10:14;;;;;;;;;;;20.10;47.20;;;;;;5073275;28;19909;-82
2022/01/06 11:12:44;;;;;;;;;;;20.60;45.90;;;;;;5073313;28;19912;-80
2022/01/06 11:15:10;;;;;;;;;;;20.10;44.80;;;;;;5071320;28;19925;-82
2022/01/06 11:17:36;;;;;;;;;;;18.70;46.00;;;;;;5073440;28;19909;-82
2022/01/06 11:20:02;;;;;;;;;;;16.80;49.10;;;;;;5073349;28;20328;-80
2022/01/06 11:22:28;;;;;;;;;;;16.80;50.20;;;;;;5073242;28;19927;-77
2022/01/06 11:24:54;;;;;;;;;;;17.60;49.30;;;;;;5073186;28;19958;-80
2022/01/06 11:27:33;;;;;;;;;;;19.80;48.20;;;;;;5071831;28;19995;-79
2022/01/06 11:30:08;;;;;;;;;;;19.40;45.80;;;;;;5073268;28;19930;-83
2022/01/06 11:32:34;;;;;;;;;;;17.30;47.70;;;;;;5073064;28;19962;-82
2022/01/06 11:35:19;;;;;;;;;;;15.10;50.40;;;;;;5073223;28;19909;-77
2022/01/06 11:37:44;;;;;;;;;;;14.10;53.70;;;;;;5073597;28;19908;-83
2022/01/06 11:40:11;;;;;;;;;;;12.50;55.60;;;;;;5072970;28;19931;-77
2022/01/06 11:42:37;;;;;;;;;;;11.80;58.30;;;;;;5073085;28;20341;-80
2022/01/06 11:45:05;;;;;;;;;;;11.70;59.20;;;;;;5071686;28;19939;-80
2022/01/06 11:47:38;;;;;;;;;;;11.40;59.70;;;;;;5072981;28;19958;-78
2022/01/06 11:50:14;;;;;;;;;;;11.50;61.10;;;;;;5072989;28;19959;-84
2022/01/06 11:52:53;;;;;;;;;;;10.90;62.50;;;;;;5073319;28;19956;-82
2022/01/06 11:55:19;;;;;;;;;;;10.80;62.40;;;;;;5072838;28;19912;-79
2022/01/06 11:57:45;;;;;;;;;;;10.60;62.70;;;;;;5072855;28;20291;-81
2022/01/06 12:00:13;;;;;;;;;;;10.30;64.20;;;;;;5073402;28;19999;-78
2022/01/06 12:02:39;;;;;;;;;;;10.20;64.60;;;;;;5072977;28;19915;-80
2022/01/06 12:05:05;;;;;;;;;;;10.40;63.40;;;;;;5072779;28;19909;-80
2022/01/06 12:07:30;;;;;;;;;;;10.50;63.70;;;;;;5072856;28;20388;-80
2022/01/06 12:10:02;;;;;;;;;;;10.30;65.10;;;;;;5074332;28;19915;-80
2022/01/06 12:12:34;;;;;;;;;;;10.40;65.40;;;;;;5076545;28;19962;-77
2022/01/06 12:15:13;;;;;;;;;;;10.50;65.50;;;;;;5075830;28;19921;-79
2022/01/06 12:17:44;;;;;;;;;;;10.50;64.20;;;;;;5076197;28;19912;-83
2022/01/06 12:20:09;;;;;;;;;;;10.50;66.60;;;;;;5074597;28;19916;-82
2022/01/06 12:22:35;;;;;;;;;;;10.60;65.70;;;;;;5074748;28;19909;-82
2022/01/06 12:25:05;;;;;;;;;;;10.50;66.10;;;;;;5076082;28;19908;-80
2022/01/06 12:27:31;;;;;;;;;;;10.80;65.90;;;;;;5075924;28;20391;-82
2022/01/06 12:29:57;;;;;;;;;;;10.70;65.80;;;;;;5075995;28;19908;-79
2022/01/06 12:32:23;;;;;;;;;;;10.90;66.00;;;;;;5075901;28;20000;-77
2022/01/06 12:34:52;;;;;;;;;;;10.60;66.20;;;;;;5074603;28;20360;-80
2022/01/06 12:37:28;;;;;;;;;;;10.20;67.20;;;;;;5076043;28;20353;-78
2022/01/06 12:39:55;;;;;;;;;;;10.40;66.80;;;;;;5075797;28;20330;-77
2022/01/06 12:42:21;;;;;;;;;;;10.50;66.10;;;;;;5075717;28;19916;-80
2022/01/06 12:44:46;;;;;;;;;;;10.60;66.10;;;;;;5075933;28;19908;-82
2022/01/06 12:47:12;;;;;;;;;;;10.00;67.10;;;;;;5074353;28;19995;-79
2022/01/06 12:49:38;;;;;;;;;;;9.60;69.00;;;;;;5074319;28;19939;-79
2022/01/06 12:52:05;;;;;;;;;;;9.80;70.30;;;;;;5074180;28;19912;-79
2022/01/06 12:54:33;;;;;;;;;;;9.50;69.20;;;;;;5075536;28;20266;-79
2022/01/06 12:57:00;;;;;;;;;;;9.50;69.70;;;;;;5074116;28;19912;-80
2022/01/06 12:59:33;;;;;;;;;;;9.20;68.90;;;;;;5075579;28;20296;-83
2022/01/06 13:02:00;;;;;;;;;;;8.90;71.50;;;;;;5075548;28;20289;-81
2022/01/06 13:04:27;;;;;;;;;;;9.00;72.40;;;;;;5075336;28;19998;-80
2022/01/06 13:06:54;;;;;;;;;;;9.00;71.90;;;;;;5075221;28;19916;-80
2022/01/06 13:09:20;;;;;;;;;;;9.20;73.30;;;;;;5075064;28;19909;-82
2022/01/06 13:11:52;;;;;;;;;;;9.20;71.60;;;;;;5075023;28;19963;-78
2022/01/06 13:14:35;;;;;;;;;;;9.20;72.50;;;;;;5074934;28;20410;-82
2022/01/06 13:17:04;;;;;;;;;;;9.30;71.60;;;;;;5073606;28;19931;-80
2022/01/06 13:19:30;;;;;;;;;;;9.30;74.00;;;;;;5075032;28;19915;-79
2022/01/06 13:22:02;;;;;;;;;;;9.10;72.40;;;;;;5074141;28;19995;-78
2022/01/06 13:24:33;;;;;;;;;;;9.20;72.80;;;;;;5075237;28;19917;-78
2022/01/06 13:26:58;;;;;;;;;;;9.00;73.50;;;;;;5075197;28;19912;-79
2022/01/06 13:29:28;;;;;;;;;;;8.80;73.70;;;;;;5073476;28;20031;-79
2022/01/06 13:31:59;;;;;;;;;;;8.70;74.80;;;;;;5074726;28;19935;-79
2022/01/06 13:34:25;;;;;;;;;;;8.80;75.70;;;;;;5074753;28;19908;-77
2022/01/06 13:37:00;;;;;;;;;;;8.70;74.00;;;;;;5074745;28;19915;-79
2022/01/06 13:39:32;;;;;;;;;;;8.80;75.70;;;;;;5074878;28;19908;-79
2022/01/06 13:41:58;;;;;;;;;;;8.70;74.00;;;;;;5074535;28;19915;-77
2022/01/06 13:44:24;;;;;;;;;;;8.80;76.00;;;;;;5074499;28;19943;-77
2022/01/06 13:47:06;;;;;;;;;;;8.70;75.90;;;;;;5074652;28;19958;-77
2022/01/06 13:52:20;;;;;;;;;;;8.90;75.60;;;;;;5074150;28;20015;-79
2022/01/06 13:54:46;;;;;;;;;;;9.20;76.60;;;;;;5074311;28;19908;-77
2022/01/06 13:57:12;;;;;;;;;;;9.00;76.10;;;;;;5074541;28;19958;-78
2022/01/06 13:59:42;;;;;;;;;;;9.00;77.20;;;;;;5074369;28;20004;-77
2022/01/06 14:02:12;;;;;;;;;;;8.80;77.00;;;;;;5074174;28;19908;-81
2022/01/06 14:04:39;;;;;;;;;;;9.00;77.80;;;;;;5074558;28;19908;-78
2022/01/06 14:07:04;;;;;;;;;;;9.00;76.70;;;;;;5074142;28;19909;-76
2022/01/06 14:09:30;;;;;;;;;;;9.00;76.80;;;;;;5074049;28;19908;-79
2022/01/06 14:11:57;;;;;;;;;;;8.90;77.40;;;;;;5073831;28;19913;-80
2022/01/06 14:14:26;;;;;;;;;;;9.10;77.60;;;;;;5073809;28;19921;-80
2022/01/06 14:16:52;;;;;;;;;;;8.70;78.30;;;;;;5072605;28;19947;-78
2022/01/06 14:19:18;;;;;;;;;;;8.90;79.70;;;;;;5073922;28;19909;-78
2022/01/06 14:21:43;;;;;;;;;;;8.90;79.80;;;;;;5073887;28;19908;-80
2022/01/06 14:24:09;;;;;;;;;;;8.90;80.60;;;;;;5073982;28;19961;-77
2022/01/06 14:26:35;;;;;;;;;;;8.40;81.70;;;;;;5073984;28;19914;-78
2022/01/06 14:29:01;;;;;;;;;;;8.30;84.00;;;;;;5072294;28;20289;-76
2022/01/06 14:31:26;;;;;;;;;;;8.30;83.90;;;;;;5073661;28;19920;-78
2022/01/06 14:33:52;;;;;;;;;;;8.20;84.90;;;;;;5073355;28;19916;-77
2022/01/06 14:36:20;;;;;;;;;;;8.40;85.60;;;;;;5073606;28;20073;-76